Trans Exeter — 9HA2572 — position and weather

sailwx.info

Track history (hours):
 
Tides and Currents Weather Stations Pressure Air Temp Water Temp Dewpoint Dewpoint Depression Visibility Wind Speed Wind Dir Waves Ship Positions

Trans Exeter

Last reported at 2015-Jan-29 17:33 UTC. Time now 2015-Jan-29 18:26 UTC.
Position N 52°12' E 003°39'.

Length 118 m; draft 6 m.

Type: Ship (hazmat cat C). MMSI: 248908000.

Date/timePositionNaut miles runAvg speedWind from/ knotsBaromVisibWave heightAir tempDewpointWater temp
2015-Jan-29 17:33N 52°12' E 003°39'2 0.8
2015-Jan-29 15:20N 52°13' E 003°37'2 2.0
2015-Jan-29 14:28N 52°14' E 003°40'1 1.5
2015-Jan-29 13:32N 52°15' E 003°41'2 0.4
2015-Jan-29 09:31N 52°14' E 003°40'2 0.8
2015-Jan-29 07:32N 52°13' E 003°38'5 2.1
2015-Jan-29 05:21N 52°12' E 003°30'2 2.4
2015-Jan-29 04:32N 52°12' E 003°33'3 2.5
2015-Jan-29 03:29N 52°13' E 003°38'3 1.6
2015-Jan-29 01:23N 52°13' E 003°32'4 2.0
2015-Jan-28 23:29N 52°16' E 003°36'1 0.8
2015-Jan-28 22:32N 52°17' E 003°36'2 1.8
2015-Jan-28 21:33N 52°18' E 003°38'1 0.9
2015-Jan-28 20:32N 52°17' E 003°37'1 0.9
2015-Jan-28 19:30N 52°17' E 003°38'1 0.5
2015-Jan-28 18:28N 52°17' E 003°39'1 0.9
2015-Jan-28 17:30N 52°16' E 003°39'2 1.5
2015-Jan-28 16:28N 52°15' E 003°41'2 1.5
2015-Jan-28 15:24N 52°16' E 003°39'2 1.5
2015-Jan-28 14:20N 52°17' E 003°37'16511.2
2015-Jan-27 23:32N 54°18' E 000°28'1516.0
2015-Jan-27 22:34N 54°24' E 000°04'1616.2
2015-Jan-27 21:33N 54°30' W 000°22'1716.6
2015-Jan-27 20:32N 54°37' W 000°48'13 3.1
2015-Jan-27 16:32N 54°36' W 001°10'0 0.0
2015-Jan-27 15:32N 54°36' W 001°10'0 0.0
2015-Jan-27 14:32N 54°36' W 001°10'0 0.0
2015-Jan-27 13:32N 54°36' W 001°10'0 0.0
2015-Jan-27 12:31N 54°36' W 001°10'0 0.0
2015-Jan-27 11:19N 54°36' W 001°10'0 0.0
2015-Jan-27 10:22N 54°36' W 001°10'0 0.0
2015-Jan-27 09:22N 54°36' W 001°10'0 0.0
2015-Jan-26 16:04N 54°36' W 001°10'0 0.0
2015-Jan-26 15:19N 54°36' W 001°10'0 0.0
2015-Jan-26 14:19N 54°36' W 001°10'0 0.0
2015-Jan-26 13:19N 54°36' W 001°10'1 1.1
2015-Jan-26 12:33N 54°37' W 001°09'7 6.5
2015-Jan-26 11:33N 54°41' W 000°60'0 0.0
2015-Jan-26 10:32N 54°41' W 000°60'0 0.0
2015-Jan-26 09:31N 54°41' W 000°60'0 0.0
2015-Jan-26 08:31N 54°41' W 000°60'0 0.0
2015-Jan-26 07:32N 54°41' W 000°60'0 0.0
2015-Jan-26 06:33N 54°41' W 000°60'0 0.0
2015-Jan-26 05:33N 54°41' W 000°60'0 0.0
2015-Jan-26 04:30N 54°41' W 000°60'0 0.0
2015-Jan-26 03:32N 54°41' W 000°60'0 0.0
2015-Jan-26 02:32N 54°41' W 000°60'0 0.0
2015-Jan-26 01:31N 54°41' W 000°60'0 0.0
2015-Jan-26 00:32N 54°41' W 000°60'0 0.0
2015-Jan-25 23:33N 54°41' W 000°60'0 0.0
2015-Jan-25 22:33N 54°41' W 000°60'0 0.0
2015-Jan-25 21:32N 54°41' W 000°60'0 0.1
2015-Jan-25 20:33N 54°41' W 000°60'0 0.0
2015-Jan-25 19:33N 54°41' W 000°60'0 0.0
2015-Jan-25 18:32N 54°41' W 000°60'0 0.0
2015-Jan-25 17:33N 54°41' W 000°60'0 0.0
2015-Jan-25 16:32N 54°41' W 000°60'0 0.0
2015-Jan-25 15:33N 54°41' W 000°60'0 0.0
2015-Jan-25 14:33N 54°41' W 000°60'0 0.0
2015-Jan-25 13:33N 54°41' W 000°60'0 0.0
2015-Jan-25 12:33N 54°41' W 000°60'0 0.0
2015-Jan-25 11:33N 54°41' W 000°60'0 0.0
2015-Jan-25 10:33N 54°41' W 000°60'0 0.0
2015-Jan-25 09:34N 54°41' W 000°60'0 0.0
2015-Jan-25 08:31N 54°41' W 000°60'0 0.0
2015-Jan-25 07:32N 54°41' W 000°60'0 0.0
2015-Jan-25 06:33N 54°41' W 000°60'0 0.0
2015-Jan-25 05:32N 54°41' W 000°60'0 0.0
2015-Jan-25 04:32N 54°41' W 000°60'0 0.0
2015-Jan-25 03:32N 54°41' W 000°60'0 0.0
2015-Jan-25 02:33N 54°41' W 000°60'0 0.0
2015-Jan-25 01:32N 54°41' W 000°60'0 0.0
2015-Jan-25 00:32N 54°41' W 000°60'0 0.0
2015-Jan-24 23:34N 54°41' W 000°60'0 0.0
2015-Jan-24 22:33N 54°41' W 000°60'0 0.0
2015-Jan-24 21:32N 54°41' W 000°60'0 0.0
2015-Jan-24 20:33N 54°41' W 000°60'0 0.0
2015-Jan-24 19:33N 54°41' W 000°60'0 0.0
2015-Jan-24 18:33N 54°41' W 000°60'0 0.0
2015-Jan-24 17:32N 54°41' W 000°60'1611.0
2015-Jan-24 16:05N 54°35' W 000°34'713.7
2015-Jan-24 15:34N 54°32' W 000°23'1413.8
2015-Jan-24 14:33N 54°26' W 000°01'1413.9
2015-Jan-24 13:33N 54°21' E 000°22'18210.7
2015-Jan-23 20:33N 51°45' E 002°57'1211.7
2015-Jan-23 19:32N 51°44' E 003°16'1313.6
2015-Jan-23 18:33N 51°32' E 003°26'1212.0
2015-Jan-23 17:33N 51°26' E 003°42'6 5.6
2015-Jan-23 16:33N 51°21' E 003°46'0 0.0
2015-Jan-23 15:32N 51°21' E 003°46'0 0.0
2015-Jan-23 14:20N 51°21' E 003°46'0 0.0
2015-Jan-23 13:05N 51°21' E 003°46'0 0.0
2015-Jan-23 12:26N 51°21' E 003°46'0 0.0
2015-Jan-23 08:32N 51°21' E 003°46'0 0.0
2015-Jan-23 07:26N 51°21' E 003°46'0 0.0
2015-Jan-23 06:23N 51°21' E 003°46'0 0.5
2015-Jan-23 05:33N 51°21' E 003°46'1110.8
2015-Jan-23 04:33N 51°26' E 004°01'8 8.0
2015-Jan-23 03:33N 51°22' E 004°13'3 3.1
2015-Jan-23 02:33N 51°21' E 004°17'1 1.1
2015-Jan-23 01:33N 51°20' E 004°18'2 0.4
2015-Jan-22 19:20N 51°18' E 004°20'0 0.0
2015-Jan-22 09:28N 51°18' E 004°20'0 0.0
2015-Jan-22 03:28N 51°18' E 004°20'0 0.0
2015-Jan-22 02:22N 51°18' E 004°20'0 0.0
2015-Jan-21 23:28N 51°18' E 004°20'0 0.0
2015-Jan-21 22:46N 51°18' E 004°20'0 0.0
2015-Jan-21 18:22N 51°18' E 004°20'0 0.0
2015-Jan-21 17:33N 51°18' E 004°20'3 3.5
2015-Jan-21 16:33N 51°21' E 004°17'1 0.6
2015-Jan-21 15:33N 51°21' E 004°16'5 4.8
2015-Jan-21 14:34N 51°16' E 004°17'0 0.4
2015-Jan-21 13:33N 51°16' E 004°16'0 0.0
2015-Jan-20 09:33N 51°16' E 004°15'1 0.8
2015-Jan-20 08:34N 51°16' E 004°17'0 0.0
2015-Jan-20 07:33N 51°16' E 004°17'2 1.7
2015-Jan-20 06:34N 51°17' E 004°19'8 7.9
2015-Jan-20 05:33N 51°23' E 004°13'8 7.7
2015-Jan-20 04:33N 51°26' E 004°01'9 9.4
2015-Jan-20 03:33N 51°21' E 003°48'9 9.4
2015-Jan-20 02:33N 51°26' E 003°35'1411.7
2015-Jan-20 01:23N 51°24' E 003°13'1113.9
2015-Jan-20 00:34N 51°22' E 002°55'1110.3
2015-Jan-19 23:32N 51°22' E 002°38'4 4.3
2015-Jan-19 22:33N 51°22' E 002°31'1514.5
2015-Jan-19 21:33N 51°15' E 002°11'1413.8
2015-Jan-19 20:33N 51°08' E 001°52'1312.6
2015-Jan-19 19:34N 50°59' E 001°37'  
Track history (hours):
 
Tides and Currents Weather Stations Pressure Air Temp Water Temp Dewpoint Dewpoint Depression Visibility Wind Speed Wind Dir Waves Ship Positions

Trans Exeter

Last reported at 2015-Jan-29 17:33 UTC. Time now 2015-Jan-29 18:26 UTC.
Position N 52°12' E 003°39'.

Length 118 m; draft 6 m.

Type: Ship (hazmat cat C). MMSI: 248908000.

Date/timePositionNaut miles runAvg speedWind from/ knotsBaromVisibWave heightAir tempDewpointWater temp
2015-Jan-29 17:33N 52°12' E 003°39'2 0.8
2015-Jan-29 15:20N 52°13' E 003°37'2 2.0
2015-Jan-29 14:28N 52°14' E 003°40'1 1.5
2015-Jan-29 13:32N 52°15' E 003°41'2 0.4
2015-Jan-29 09:31N 52°14' E 003°40'2 0.8
2015-Jan-29 07:32N 52°13' E 003°38'5 2.1
2015-Jan-29 05:21N 52°12' E 003°30'2 2.4
2015-Jan-29 04:32N 52°12' E 003°33'3 2.5
2015-Jan-29 03:29N 52°13' E 003°38'3 1.6
2015-Jan-29 01:23N 52°13' E 003°32'4 2.0
2015-Jan-28 23:29N 52°16' E 003°36'1 0.8
2015-Jan-28 22:32N 52°17' E 003°36'2 1.8
2015-Jan-28 21:33N 52°18' E 003°38'1 0.9
2015-Jan-28 20:32N 52°17' E 003°37'1 0.9
2015-Jan-28 19:30N 52°17' E 003°38'1 0.5
2015-Jan-28 18:28N 52°17' E 003°39'1 0.9
2015-Jan-28 17:30N 52°16' E 003°39'2 1.5
2015-Jan-28 16:28N 52°15' E 003°41'2 1.5
2015-Jan-28 15:24N 52°16' E 003°39'2 1.5
2015-Jan-28 14:20N 52°17' E 003°37'16511.2
2015-Jan-27 23:32N 54°18' E 000°28'1516.0
2015-Jan-27 22:34N 54°24' E 000°04'1616.2
2015-Jan-27 21:33N 54°30' W 000°22'1716.6
2015-Jan-27 20:32N 54°37' W 000°48'13 3.1
2015-Jan-27 16:32N 54°36' W 001°10'0 0.0
2015-Jan-27 15:32N 54°36' W 001°10'0 0.0
2015-Jan-27 14:32N 54°36' W 001°10'0 0.0
2015-Jan-27 13:32N 54°36' W 001°10'0 0.0
2015-Jan-27 12:31N 54°36' W 001°10'0 0.0
2015-Jan-27 11:19N 54°36' W 001°10'0 0.0
2015-Jan-27 10:22N 54°36' W 001°10'0 0.0
2015-Jan-27 09:22N 54°36' W 001°10'0 0.0
2015-Jan-26 16:04N 54°36' W 001°10'0 0.0
2015-Jan-26 15:19N 54°36' W 001°10'0 0.0
2015-Jan-26 14:19N 54°36' W 001°10'0 0.0
2015-Jan-26 13:19N 54°36' W 001°10'1 1.1
2015-Jan-26 12:33N 54°37' W 001°09'7 6.5
2015-Jan-26 11:33N 54°41' W 000°60'0 0.0
2015-Jan-26 10:32N 54°41' W 000°60'0 0.0
2015-Jan-26 09:31N 54°41' W 000°60'0 0.0
2015-Jan-26 08:31N 54°41' W 000°60'0 0.0
2015-Jan-26 07:32N 54°41' W 000°60'0 0.0
2015-Jan-26 06:33N 54°41' W 000°60'0 0.0
2015-Jan-26 05:33N 54°41' W 000°60'0 0.0
2015-Jan-26 04:30N 54°41' W 000°60'0 0.0
2015-Jan-26 03:32N 54°41' W 000°60'0 0.0
2015-Jan-26 02:32N 54°41' W 000°60'0 0.0
2015-Jan-26 01:31N 54°41' W 000°60'0 0.0
2015-Jan-26 00:32N 54°41' W 000°60'0 0.0
2015-Jan-25 23:33N 54°41' W 000°60'0 0.0
2015-Jan-25 22:33N 54°41' W 000°60'0 0.0
2015-Jan-25 21:32N 54°41' W 000°60'0 0.1
2015-Jan-25 20:33N 54°41' W 000°60'0 0.0
2015-Jan-25 19:33N 54°41' W 000°60'0 0.0
2015-Jan-25 18:32N 54°41' W 000°60'0 0.0
2015-Jan-25 17:33N 54°41' W 000°60'0 0.0
2015-Jan-25 16:32N 54°41' W 000°60'0 0.0
2015-Jan-25 15:33N 54°41' W 000°60'0 0.0
2015-Jan-25 14:33N 54°41' W 000°60'0 0.0
2015-Jan-25 13:33N 54°41' W 000°60'0 0.0
2015-Jan-25 12:33N 54°41' W 000°60'0 0.0
2015-Jan-25 11:33N 54°41' W 000°60'0 0.0
2015-Jan-25 10:33N 54°41' W 000°60'0 0.0
2015-Jan-25 09:34N 54°41' W 000°60'0 0.0
2015-Jan-25 08:31N 54°41' W 000°60'0 0.0
2015-Jan-25 07:32N 54°41' W 000°60'0 0.0
2015-Jan-25 06:33N 54°41' W 000°60'0 0.0
2015-Jan-25 05:32N 54°41' W 000°60'0 0.0
2015-Jan-25 04:32N 54°41' W 000°60'0 0.0
2015-Jan-25 03:32N 54°41' W 000°60'0 0.0
2015-Jan-25 02:33N 54°41' W 000°60'0 0.0
2015-Jan-25 01:32N 54°41' W 000°60'0 0.0
2015-Jan-25 00:32N 54°41' W 000°60'0 0.0
2015-Jan-24 23:34N 54°41' W 000°60'0 0.0
2015-Jan-24 22:33N 54°41' W 000°60'0 0.0
2015-Jan-24 21:32N 54°41' W 000°60'0 0.0
2015-Jan-24 20:33N 54°41' W 000°60'0 0.0
2015-Jan-24 19:33N 54°41' W 000°60'0 0.0
2015-Jan-24 18:33N 54°41' W 000°60'0 0.0
2015-Jan-24 17:32N 54°41' W 000°60'1611.0
2015-Jan-24 16:05N 54°35' W 000°34'713.7
2015-Jan-24 15:34N 54°32' W 000°23'1413.8
2015-Jan-24 14:33N 54°26' W 000°01'1413.9
2015-Jan-24 13:33N 54°21' E 000°22'18210.7
2015-Jan-23 20:33N 51°45' E 002°57'1211.7
2015-Jan-23 19:32N 51°44' E 003°16'1313.6
2015-Jan-23 18:33N 51°32' E 003°26'1212.0
2015-Jan-23 17:33N 51°26' E 003°42'6 5.6
2015-Jan-23 16:33N 51°21' E 003°46'0 0.0
2015-Jan-23 15:32N 51°21' E 003°46'0 0.0
2015-Jan-23 14:20N 51°21' E 003°46'0 0.0
2015-Jan-23 13:05N 51°21' E 003°46'0 0.0
2015-Jan-23 12:26N 51°21' E 003°46'0 0.0
2015-Jan-23 08:32N 51°21' E 003°46'0 0.0
2015-Jan-23 07:26N 51°21' E 003°46'0 0.0
2015-Jan-23 06:23N 51°21' E 003°46'0 0.5
2015-Jan-23 05:33N 51°21' E 003°46'1110.8
2015-Jan-23 04:33N 51°26' E 004°01'8 8.0
2015-Jan-23 03:33N 51°22' E 004°13'3 3.1
2015-Jan-23 02:33N 51°21' E 004°17'1 1.1
2015-Jan-23 01:33N 51°20' E 004°18'2 0.4
2015-Jan-22 19:20N 51°18' E 004°20'0 0.0
2015-Jan-22 09:28N 51°18' E 004°20'0 0.0
2015-Jan-22 03:28N 51°18' E 004°20'0 0.0
2015-Jan-22 02:22N 51°18' E 004°20'0 0.0
2015-Jan-21 23:28N 51°18' E 004°20'0 0.0
2015-Jan-21 22:46N 51°18' E 004°20'0 0.0
2015-Jan-21 18:22N 51°18' E 004°20'0 0.0
2015-Jan-21 17:33N 51°18' E 004°20'3 3.5
2015-Jan-21 16:33N 51°21' E 004°17'1 0.6
2015-Jan-21 15:33N 51°21' E 004°16'5 4.8
2015-Jan-21 14:34N 51°16' E 004°17'0 0.4
2015-Jan-21 13:33N 51°16' E 004°16'0 0.0
2015-Jan-20 09:33N 51°16' E 004°15'1 0.8
2015-Jan-20 08:34N 51°16' E 004°17'0 0.0
2015-Jan-20 07:33N 51°16' E 004°17'2 1.7
2015-Jan-20 06:34N 51°17' E 004°19'8 7.9
2015-Jan-20 05:33N 51°23' E 004°13'8 7.7
2015-Jan-20 04:33N 51°26' E 004°01'9 9.4
2015-Jan-20 03:33N 51°21' E 003°48'9 9.4
2015-Jan-20 02:33N 51°26' E 003°35'1411.7
2015-Jan-20 01:23N 51°24' E 003°13'1113.9
2015-Jan-20 00:34N 51°22' E 002°55'1110.3
2015-Jan-19 23:32N 51°22' E 002°38'4 4.3
2015-Jan-19 22:33N 51°22' E 002°31'1514.5
2015-Jan-19 21:33N 51°15' E 002°11'1413.8
2015-Jan-19 20:33N 51°08' E 001°52'1312.6
2015-Jan-19 19:34N 50°59' E 001°37'  

Dump ship's entire track history